createdAt,value
2018-08-03T00:01:33.468Z,98272.00
2018-08-03T00:04:02.704Z,98269.84
2018-08-03T00:06:31.963Z,98271.02
2018-08-03T00:09:01.201Z,98271.37
2018-08-03T00:11:30.238Z,98270.45
2018-08-03T00:13:59.530Z,98273.42
2018-08-03T00:16:28.822Z,98267.05
2018-08-03T00:18:58.129Z,98269.94
2018-08-03T00:21:27.430Z,98260.38
2018-08-03T00:23:56.685Z,98257.05
2018-08-03T00:26:25.937Z,98255.20
2018-08-03T00:28:55.213Z,98257.41
2018-08-03T00:31:24.456Z,98250.41
2018-08-03T00:33:53.703Z,98252.86
2018-08-03T00:36:22.948Z,98250.52
2018-08-03T00:38:52.216Z,98259.62
2018-08-03T00:41:21.486Z,98257.58
2018-08-03T00:43:50.878Z,98256.09
2018-08-03T00:46:20.150Z,98249.46
2018-08-03T00:48:49.601Z,98254.87
2018-08-03T00:51:18.861Z,98251.14
2018-08-03T00:53:48.216Z,98251.69
2018-08-03T00:56:17.462Z,98249.23
2018-08-03T00:58:46.840Z,98252.17
2018-08-03T01:01:16.071Z,98252.30
2018-08-03T01:03:45.280Z,98246.73
2018-08-03T01:06:14.624Z,98248.98
2018-08-03T01:08:44.935Z,98246.53
2018-08-03T01:11:14.230Z,98255.27
2018-08-03T01:13:43.491Z,98257.04
2018-08-03T01:16:12.743Z,98261.00
2018-08-03T01:18:42.022Z,98260.03
2018-08-03T01:21:11.278Z,98257.94
2018-08-03T01:23:40.586Z,98261.19
2018-08-03T01:26:09.866Z,98260.55
2018-08-03T01:28:39.146Z,98264.90
2018-08-03T01:31:08.406Z,98261.39
2018-08-03T01:33:37.659Z,98261.61
2018-08-03T01:36:06.929Z,98258.38
2018-08-03T01:38:36.195Z,98254.13
2018-08-03T01:41:05.445Z,98249.88
2018-08-03T01:43:34.713Z,98251.28
2018-08-03T01:46:03.989Z,98240.49
2018-08-03T01:48:33.289Z,98240.75
2018-08-03T01:51:02.596Z,98238.11
2018-08-03T01:53:31.882Z,98244.32
2018-08-03T01:56:01.201Z,98241.91
2018-08-03T01:58:30.466Z,98244.88
2018-08-03T02:00:59.737Z,98242.00
2018-08-03T02:03:29.018Z,98241.80
2018-08-03T02:05:58.289Z,98242.14
2018-08-03T02:08:27.615Z,98237.12
2018-08-03T02:10:56.981Z,98242.63
2018-08-03T02:13:26.310Z,98238.63
2018-08-03T02:15:55.719Z,98233.28
2018-08-03T02:18:25.067Z,98235.98
2018-08-03T02:20:54.322Z,98238.48
2018-08-03T02:23:23.614Z,98236.82
2018-08-03T02:25:52.908Z,98233.66
2018-08-03T02:28:22.197Z,98239.66
2018-08-03T02:30:51.466Z,98238.26
2018-08-03T02:33:20.739Z,98236.36
2018-08-03T02:35:50.069Z,98246.23
2018-08-03T02:38:19.330Z,98238.95
2018-08-03T02:40:48.601Z,98239.47
2018-08-03T02:43:17.888Z,98236.24
2018-08-03T02:45:47.132Z,98241.16
2018-08-03T02:48:16.437Z,98243.27
2018-08-03T02:50:45.728Z,98241.11
2018-08-03T02:53:14.990Z,98242.59
2018-08-03T02:55:44.427Z,98236.93
2018-08-03T02:58:13.719Z,98225.56
2018-08-03T03:00:43.000Z,98231.31
2018-08-03T03:03:12.278Z,98235.92
2018-08-03T03:05:41.571Z,98231.34
2018-08-03T03:08:10.878Z,98234.33
2018-08-03T03:10:40.148Z,98234.88
2018-08-03T03:13:09.420Z,98238.52
2018-08-03T03:15:38.710Z,98234.20
2018-08-03T03:18:08.010Z,98227.45
2018-08-03T03:20:37.331Z,98233.37
2018-08-03T03:23:06.566Z,98231.77
2018-08-03T03:25:35.925Z,98231.82
2018-08-03T03:28:05.237Z,98240.61
2018-08-03T03:30:34.507Z,98235.41
2018-08-03T03:33:03.954Z,98236.44
2018-08-03T03:35:33.238Z,98241.17
2018-08-03T03:38:02.629Z,98243.33
2018-08-03T03:40:31.914Z,98242.84
2018-08-03T03:43:01.193Z,98242.91
2018-08-03T03:45:30.483Z,98235.69
2018-08-03T03:47:59.750Z,98234.68
2018-08-03T03:50:29.037Z,98233.41
2018-08-03T03:52:58.303Z,98233.37
2018-08-03T03:55:27.550Z,98236.10
2018-08-03T03:57:56.889Z,98241.51
2018-08-03T04:00:26.192Z,98236.62
2018-08-03T04:02:55.461Z,98241.41
2018-08-03T04:05:24.746Z,98241.51
2018-08-03T04:07:54.003Z,98244.34
2018-08-03T04:10:23.308Z,98246.20
2018-08-03T04:12:52.623Z,98249.80
2018-08-03T04:15:21.922Z,98253.17
2018-08-03T04:17:51.182Z,98236.98
2018-08-03T04:20:20.467Z,98253.09
2018-08-03T04:22:49.724Z,98259.52
2018-08-03T04:25:19.011Z,98252.71
2018-08-03T04:27:48.334Z,98256.42
2018-08-03T04:30:17.413Z,98257.52
2018-08-03T04:32:46.726Z,98259.26
2018-08-03T04:35:16.015Z,98252.22
2018-08-03T04:37:45.366Z,98260.25
2018-08-03T04:40:14.721Z,98259.54
2018-08-03T04:42:44.014Z,98263.20
2018-08-03T04:45:13.403Z,98269.15
2018-08-03T04:47:42.686Z,98272.06
2018-08-03T04:50:12.002Z,98272.06
2018-08-03T04:52:41.270Z,98271.37
2018-08-03T04:55:11.126Z,98270.39
2018-08-03T04:57:40.405Z,98266.62
2018-08-03T05:00:09.739Z,98269.21
2018-08-03T05:02:39.052Z,98269.70
2018-08-03T05:05:08.435Z,98271.16
2018-08-03T05:07:37.760Z,98271.42
2018-08-03T05:10:06.817Z,98275.68
2018-08-03T05:12:36.419Z,98276.63
2018-08-03T05:15:07.087Z,98274.37
2018-08-03T05:17:36.557Z,98269.13
2018-08-03T05:20:06.588Z,98280.53
2018-08-03T05:22:35.915Z,98284.64
2018-08-03T05:25:05.878Z,98285.30
2018-08-03T05:27:35.191Z,98286.11
2018-08-03T05:30:05.338Z,98287.16
2018-08-03T05:32:34.662Z,98283.24
2018-08-03T05:35:04.213Z,98287.84
2018-08-03T05:37:33.386Z,98281.54
2018-08-03T05:40:02.745Z,98284.34
2018-08-03T05:42:32.049Z,98278.22
2018-08-03T05:45:01.392Z,98279.66
2018-08-03T05:47:30.943Z,98280.20
2018-08-03T05:50:00.242Z,98283.57
2018-08-03T05:52:29.574Z,98280.47
2018-08-03T05:54:58.954Z,98284.07
2018-08-03T05:57:28.314Z,98289.70
2018-08-03T05:59:57.739Z,98286.60
2018-08-03T06:02:27.035Z,98300.64
2018-08-03T06:04:56.329Z,98296.87
2018-08-03T06:07:25.609Z,98297.28
2018-08-03T06:09:54.861Z,98301.16
2018-08-03T06:12:24.202Z,98300.73
2018-08-03T06:14:53.487Z,98310.13
2018-08-03T06:17:22.807Z,98300.35
2018-08-03T06:19:52.091Z,98295.44
2018-08-03T06:22:21.405Z,98301.54
2018-08-03T06:24:50.649Z,98292.08
2018-08-03T06:27:20.091Z,98295.23
2018-08-03T06:29:49.555Z,98287.58
2018-08-03T06:32:18.793Z,98289.95
2018-08-03T06:34:48.127Z,98289.73
2018-08-03T06:37:17.467Z,98286.97
2018-08-03T06:39:46.786Z,98292.96
2018-08-03T06:42:16.109Z,98290.82
2018-08-03T06:44:45.465Z,98288.62
2018-08-03T06:47:14.566Z,98290.18
2018-08-03T06:49:43.882Z,98292.90
2018-08-03T06:52:13.349Z,98292.45
2018-08-03T06:54:42.699Z,98286.97
2018-08-03T06:57:12.092Z,98292.06
2018-08-03T06:59:41.376Z,98290.80
2018-08-03T07:02:10.802Z,98290.36
2018-08-03T07:04:40.123Z,98289.78
2018-08-03T07:07:09.444Z,98292.30
2018-08-03T07:09:38.798Z,98294.55
2018-08-03T07:12:08.155Z,98287.66
2018-08-03T07:14:37.470Z,98287.53
2018-08-03T07:17:07.149Z,98287.61
2018-08-03T07:19:36.529Z,98279.94
2018-08-03T07:22:05.850Z,98276.80
2018-08-03T07:24:35.210Z,98282.06
2018-08-03T07:27:04.266Z,98277.59
2018-08-03T07:29:33.611Z,98269.87
2018-08-03T07:32:02.847Z,98273.19
2018-08-03T07:34:32.470Z,98279.55
2018-08-03T07:37:01.867Z,98278.41
2018-08-03T07:39:31.227Z,98276.47
2018-08-03T07:42:00.539Z,98272.48
2018-08-03T07:44:29.785Z,98282.50
2018-08-03T07:46:59.037Z,98285.22
2018-08-03T07:49:28.412Z,98290.70
2018-08-03T07:51:57.841Z,98301.03
2018-08-03T07:54:27.234Z,98290.58
2018-08-03T07:56:57.383Z,98293.77
2018-08-03T07:59:26.712Z,98287.52
2018-08-03T08:01:55.998Z,98288.00
2018-08-03T08:04:25.329Z,98289.72
2018-08-03T08:06:54.608Z,98281.18
2018-08-03T08:09:23.895Z,98285.19
2018-08-03T08:11:54.176Z,98284.52
2018-08-03T08:14:23.490Z,98278.42
2018-08-03T08:16:52.753Z,98278.97
2018-08-03T08:19:22.062Z,98277.80
2018-08-03T08:21:51.364Z,98279.05
2018-08-03T08:24:20.672Z,98274.28
2018-08-03T08:26:49.962Z,98274.47
2018-08-03T08:29:19.328Z,98284.98
2018-08-03T08:31:48.661Z,98269.47
2018-08-03T08:34:18.034Z,98270.70
2018-08-03T08:36:47.290Z,98266.77
2018-08-03T08:39:16.605Z,98258.88
2018-08-03T08:41:45.889Z,98260.69
2018-08-03T08:44:15.171Z,98266.70
2018-08-03T08:46:44.490Z,98264.88
2018-08-03T08:49:13.943Z,98257.98
2018-08-03T08:51:43.199Z,98260.08
2018-08-03T08:54:12.223Z,98264.36
2018-08-03T08:56:41.513Z,98259.83
2018-08-03T08:59:10.917Z,98257.95
2018-08-03T09:01:40.308Z,98262.32
2018-08-03T09:04:09.620Z,98262.59
2018-08-03T09:06:38.982Z,98263.10
2018-08-03T09:09:10.374Z,98272.66
2018-08-03T09:11:40.068Z,98271.78
2018-08-03T09:14:09.135Z,98269.48
2018-08-03T09:16:38.466Z,98256.75
2018-08-03T09:19:07.839Z,98260.00
2018-08-03T09:21:37.188Z,98255.66
2018-08-03T09:24:06.526Z,98256.46
2018-08-03T09:26:35.872Z,98259.84
2018-08-03T09:29:05.221Z,98252.58
2018-08-03T09:31:35.601Z,98249.19
2018-08-03T09:34:04.987Z,98248.80
2018-08-03T09:36:34.596Z,98246.70
2018-08-03T09:39:05.232Z,98243.14
2018-08-03T09:41:34.694Z,98244.17
2018-08-03T09:44:03.998Z,98246.09
2018-08-03T09:46:33.454Z,98243.06
2018-08-03T09:49:02.857Z,98244.57
2018-08-03T09:51:32.174Z,98240.89
2018-08-03T09:54:01.483Z,98236.25
2018-08-03T09:56:30.987Z,98234.42
2018-08-03T09:59:00.408Z,98223.38
2018-08-03T10:01:29.786Z,98222.58
2018-08-03T10:03:59.432Z,98215.27
2018-08-03T10:06:28.773Z,98212.84
2018-08-03T10:08:58.033Z,98213.06
2018-08-03T10:11:27.408Z,98215.03
2018-08-03T10:13:56.737Z,98214.92
2018-08-03T10:16:26.145Z,98214.86
2018-08-03T10:18:55.522Z,98208.27
2018-08-03T10:21:24.911Z,98212.44
2018-08-03T10:23:54.195Z,98201.53
2018-08-03T10:26:23.674Z,98197.33
2018-08-03T10:28:53.343Z,98196.34
2018-08-03T10:31:22.808Z,98195.70
2018-08-03T10:33:52.403Z,98197.76
2018-08-03T10:36:21.750Z,98195.38
2018-08-03T10:38:51.054Z,98197.00
2018-08-03T10:41:20.417Z,98187.33
2018-08-03T10:43:49.851Z,98196.28
2018-08-03T10:46:19.255Z,98185.23
2018-08-03T10:48:55.556Z,98194.34
2018-08-03T10:51:24.886Z,98185.98
2018-08-03T10:53:54.250Z,98185.08
2018-08-03T10:56:23.702Z,98189.30
2018-08-03T10:58:53.063Z,98180.89
2018-08-03T11:01:22.614Z,98178.00
2018-08-03T11:03:52.382Z,98176.75
2018-08-03T11:06:21.716Z,98172.73
2018-08-03T11:08:51.030Z,98168.58
2018-08-03T11:11:21.226Z,98163.11
2018-08-03T11:13:57.079Z,98159.45
2018-08-03T11:16:26.379Z,98157.97
2018-08-03T11:18:55.786Z,98159.62
2018-08-03T11:21:25.142Z,98152.46
2018-08-03T11:23:54.507Z,98150.42
2018-08-03T11:26:23.875Z,98151.81
2018-08-03T11:28:53.214Z,98141.06
2018-08-03T11:31:23.645Z,98144.53
2018-08-03T11:33:52.954Z,98140.78
2018-08-03T11:36:22.283Z,98137.23
2018-08-03T11:38:51.628Z,98134.73
2018-08-03T11:41:20.946Z,98127.23
2018-08-03T11:43:50.400Z,98126.30
2018-08-03T11:46:19.863Z,98129.55
2018-08-03T11:48:49.318Z,98122.53
2018-08-03T11:51:18.758Z,98125.17
2018-08-03T11:53:49.168Z,98123.30
2018-08-03T11:56:18.652Z,98122.45
2018-08-03T11:58:48.950Z,98121.03
2018-08-03T12:01:18.070Z,98117.94
2018-08-03T12:03:47.842Z,98109.21
2018-08-03T12:06:17.194Z,98105.91
2018-08-03T12:08:46.734Z,98108.82
2018-08-03T12:11:16.168Z,98110.52
2018-08-03T12:13:45.551Z,98100.22
2018-08-03T12:16:15.045Z,98093.95
2018-08-03T12:18:44.469Z,98103.58
2018-08-03T12:21:13.777Z,98093.70
2018-08-03T12:23:43.219Z,98088.22
2018-08-03T12:26:12.909Z,98086.91
2018-08-03T12:28:42.226Z,98083.55
2018-08-03T12:31:11.569Z,98080.37
2018-08-03T12:33:40.605Z,98085.92
2018-08-03T12:36:09.976Z,98086.52
2018-08-03T12:38:39.322Z,98088.02
2018-08-03T12:41:08.671Z,98078.00
2018-08-03T12:43:38.218Z,98078.93
2018-08-03T12:46:07.566Z,98072.09
2018-08-03T12:48:36.866Z,98071.88
2018-08-03T12:51:06.209Z,98073.08
2018-08-03T12:53:36.023Z,98071.51
2018-08-03T12:56:05.375Z,98067.55
2018-08-03T12:58:34.722Z,98064.37
2018-08-03T13:01:04.060Z,98060.22
2018-08-03T13:03:33.431Z,98056.51
2018-08-03T13:06:02.767Z,98057.63
2018-08-03T13:08:32.265Z,98061.20
2018-08-03T13:11:01.448Z,98055.70
2018-08-03T13:13:30.856Z,98066.36
2018-08-03T13:16:00.145Z,98058.78
2018-08-03T13:18:29.469Z,98054.45
2018-08-03T13:20:58.871Z,98052.81
2018-08-03T13:23:28.246Z,98053.56
2018-08-03T13:25:57.667Z,98044.42
2018-08-03T13:28:26.979Z,98044.89
2018-08-03T13:30:56.359Z,98046.27
2018-08-03T13:33:25.779Z,98042.09
2018-08-03T13:35:55.184Z,98039.55
2018-08-03T13:38:24.523Z,98032.04
2018-08-03T13:40:54.027Z,98031.45
2018-08-03T13:43:23.495Z,98024.11
2018-08-03T13:45:52.645Z,98024.33
2018-08-03T13:48:28.816Z,98026.48
2018-08-03T13:50:58.222Z,98022.94
2018-08-03T13:53:27.555Z,98019.37
2018-08-03T13:55:57.065Z,98025.50
2018-08-03T13:58:26.471Z,98008.33
2018-08-03T14:01:13.059Z,98012.92
2018-08-03T14:03:42.680Z,98004.25
2018-08-03T14:06:12.087Z,98003.06
2018-08-03T14:08:44.099Z,98004.09
2018-08-03T14:11:13.938Z,98002.89
2018-08-03T14:13:43.341Z,98005.11
2018-08-03T14:16:13.039Z,97999.03
2018-08-03T14:18:42.813Z,97997.20
2018-08-03T14:21:12.306Z,97987.11
2018-08-03T14:23:41.660Z,97986.34
2018-08-03T14:26:11.033Z,97987.89
2018-08-03T14:28:40.562Z,97990.81
2018-08-03T14:31:09.682Z,97990.13
2018-08-03T14:33:39.089Z,97959.16
2018-08-03T14:36:08.485Z,97983.69
2018-08-03T14:38:37.878Z,97978.20
2018-08-03T14:41:07.415Z,97985.87
2018-08-03T14:43:36.803Z,97971.38
2018-08-03T14:46:06.183Z,97971.97
2018-08-03T14:48:35.619Z,97961.09
2018-08-03T14:51:05.162Z,97973.45
2018-08-03T14:53:34.495Z,97973.70
2018-08-03T14:56:03.935Z,97971.77
2018-08-03T14:58:33.357Z,97962.09
2018-08-03T15:01:02.941Z,97967.82
2018-08-03T15:03:32.239Z,97967.86
2018-08-03T15:06:01.670Z,97967.92
2018-08-03T15:08:31.130Z,97964.90
2018-08-03T15:11:00.517Z,97962.29
2018-08-03T15:13:29.916Z,97967.72
2018-08-03T15:15:58.988Z,97960.70
2018-08-03T15:18:28.328Z,97947.80
2018-08-03T15:20:57.701Z,97945.63
2018-08-03T15:23:27.074Z,97946.56
2018-08-03T15:25:56.471Z,97944.20
2018-08-03T15:28:25.795Z,97939.39
2018-08-03T15:30:55.160Z,97935.66
2018-08-03T15:33:24.668Z,97933.67
2018-08-03T15:35:54.420Z,97941.19
2018-08-03T15:38:23.775Z,97931.34
2018-08-03T15:40:53.170Z,97938.88
2018-08-03T15:43:22.414Z,97939.45
2018-08-03T15:45:51.745Z,97938.31
2018-08-03T15:48:21.043Z,97928.17
2018-08-03T15:50:50.410Z,97926.41
2018-08-03T15:53:19.718Z,97925.64
2018-08-03T15:55:49.064Z,97923.61
2018-08-03T15:58:18.347Z,97917.33
2018-08-03T16:00:47.710Z,97918.55
2018-08-03T16:03:17.047Z,97912.09
2018-08-03T16:05:46.336Z,97915.27
2018-08-03T16:08:15.754Z,97914.06
2018-08-03T16:10:45.040Z,97911.11
2018-08-03T16:13:14.447Z,97906.95
2018-08-03T16:15:43.565Z,97909.92
2018-08-03T16:18:12.838Z,97910.70
2018-08-03T16:20:42.119Z,97908.75
2018-08-03T16:23:11.410Z,97909.11
2018-08-03T16:25:40.753Z,97901.45
2018-08-03T16:28:10.264Z,97897.51
2018-08-03T16:30:39.594Z,97898.48
2018-08-03T16:33:08.995Z,97897.09
2018-08-03T16:35:38.388Z,97901.64
2018-08-03T16:38:07.733Z,97893.98
2018-08-03T16:40:37.146Z,97890.63
2018-08-03T16:43:06.541Z,97895.75
2018-08-03T16:45:35.855Z,97895.95
2018-08-03T16:48:05.254Z,97890.02
2018-08-03T16:50:34.757Z,97885.89
2018-08-03T16:53:04.124Z,97884.08
2018-08-03T16:55:33.470Z,97890.19
2018-08-03T16:58:02.766Z,97890.16
2018-08-03T17:00:32.065Z,97892.55
2018-08-03T17:03:01.487Z,97884.67
2018-08-03T17:05:30.867Z,97873.73
2018-08-03T17:08:00.238Z,97885.75
2018-08-03T17:10:29.685Z,97883.48
2018-08-03T17:12:59.035Z,97882.37
2018-08-03T17:15:28.367Z,97881.73
2018-08-03T17:17:58.906Z,97884.67
2018-08-03T17:20:28.844Z,97879.70
2018-08-03T17:22:58.387Z,97879.09
2018-08-03T17:25:28.347Z,97884.45
2018-08-03T17:27:58.013Z,97870.86
2018-08-03T17:30:27.427Z,97872.48
2018-08-03T17:32:56.816Z,97872.03
2018-08-03T17:35:26.276Z,97874.99
2018-08-03T17:37:55.633Z,97873.47
2018-08-03T17:40:24.951Z,97868.88
2018-08-03T17:42:54.301Z,97867.34
2018-08-03T17:45:23.718Z,97871.48
2018-08-03T17:47:53.085Z,97873.44
2018-08-03T17:50:22.378Z,97872.44
2018-08-03T17:52:51.783Z,97867.92
2018-08-03T17:55:21.063Z,97867.86
2018-08-03T17:57:50.468Z,97874.86
2018-08-03T18:00:20.027Z,97869.11
2018-08-03T18:02:49.510Z,97873.66
2018-08-03T18:05:19.047Z,97871.45
2018-08-03T18:07:48.400Z,97876.43
2018-08-03T18:10:18.092Z,97872.06
2018-08-03T18:12:47.362Z,97877.66
2018-08-03T18:15:16.863Z,97883.56
2018-08-03T18:17:46.180Z,97880.42
2018-08-03T18:20:15.667Z,97882.51
2018-08-03T18:22:45.008Z,97886.20
2018-08-03T18:25:14.370Z,97890.19
2018-08-03T18:27:43.733Z,97887.05
2018-08-03T18:30:13.069Z,97890.33
2018-08-03T18:32:42.404Z,97891.14
2018-08-03T18:35:11.670Z,97892.09
2018-08-03T18:37:41.038Z,97893.88
2018-08-03T18:40:11.087Z,97892.53
2018-08-03T18:42:40.708Z,97895.51
2018-08-03T18:45:10.078Z,97892.25
2018-08-03T18:47:39.447Z,97893.83
2018-08-03T18:50:08.822Z,97891.32
2018-08-03T18:52:38.233Z,97891.24
2018-08-03T18:55:07.657Z,97896.45
2018-08-03T18:57:36.986Z,97899.59
2018-08-03T19:00:06.999Z,97904.03
2018-08-03T19:02:36.339Z,97906.22
2018-08-03T19:05:07.030Z,97911.14
2018-08-03T19:07:36.524Z,97909.48
2018-08-03T19:10:05.900Z,97907.30
2018-08-03T19:12:35.147Z,97921.18
2018-08-03T19:15:04.639Z,97920.05
2018-08-03T19:17:33.914Z,97914.91
2018-08-03T19:20:03.415Z,97924.59
2018-08-03T19:22:32.692Z,97922.30
2018-08-03T19:25:02.099Z,97925.75
2018-08-03T19:27:31.422Z,97929.31
2018-08-03T19:30:00.792Z,97931.42
2018-08-03T19:32:30.115Z,97934.86
2018-08-03T19:34:59.342Z,97935.17
2018-08-03T19:37:29.418Z,97938.61
2018-08-03T19:39:58.777Z,97947.62
2018-08-03T19:42:28.167Z,97947.55
2018-08-03T19:44:57.476Z,97944.69
2018-08-03T19:47:27.043Z,97947.56
2018-08-03T19:49:56.327Z,97943.94
2018-08-03T19:52:25.855Z,97943.84
2018-08-03T19:54:55.122Z,97941.22
2018-08-03T19:57:24.385Z,97939.44
2018-08-03T19:59:53.748Z,97942.50
2018-08-03T20:02:23.039Z,97941.94
2018-08-03T20:04:52.342Z,97941.17
2018-08-03T20:07:22.215Z,97947.20
2018-08-03T20:09:51.474Z,97944.97
2018-08-03T20:12:20.758Z,97946.89
2018-08-03T20:14:50.059Z,97944.27
2018-08-03T20:17:19.081Z,97949.19
2018-08-03T20:19:48.287Z,97945.68
2018-08-03T20:22:18.886Z,97939.19
2018-08-03T20:24:48.285Z,97947.37
2018-08-03T20:27:17.714Z,97941.31
2018-08-03T20:29:47.074Z,97941.78
2018-08-03T20:32:16.402Z,97947.58
2018-08-03T20:34:45.828Z,97946.34
2018-08-03T20:37:15.115Z,97948.30
2018-08-03T20:39:44.461Z,97946.93
2018-08-03T20:42:13.738Z,97944.06
2018-08-03T20:44:43.092Z,97949.08
2018-08-03T20:47:12.400Z,97947.48
2018-08-03T20:49:41.790Z,97947.59
2018-08-03T20:52:11.138Z,97949.41
2018-08-03T20:54:43.314Z,97945.97
2018-08-03T20:57:12.618Z,97949.92
2018-08-03T20:59:42.038Z,97951.37
2018-08-03T21:02:11.344Z,97950.25
2018-08-03T21:04:40.728Z,97954.34
2018-08-03T21:07:09.999Z,97948.98
2018-08-03T21:09:39.314Z,97950.63
2018-08-03T21:12:08.744Z,97955.31
2018-08-03T21:14:38.087Z,97950.72
2018-08-03T21:17:07.162Z,97958.00
2018-08-03T21:19:36.498Z,97951.72
2018-08-03T21:22:05.812Z,97951.23
2018-08-03T21:24:40.276Z,97958.24
2018-08-03T21:27:09.635Z,97949.39
2018-08-03T21:29:39.321Z,97949.23
2018-08-03T21:32:08.675Z,97945.16
2018-08-03T21:34:38.011Z,97952.83
2018-08-03T21:37:07.297Z,97951.14
2018-08-03T21:39:36.837Z,97950.12
2018-08-03T21:42:06.338Z,97949.61
2018-08-03T21:44:35.784Z,97953.57
2018-08-03T21:47:04.792Z,97939.59
2018-08-03T21:49:34.049Z,97946.16
2018-08-03T21:52:03.370Z,97944.48
2018-08-03T21:54:32.641Z,97943.56
2018-08-03T21:57:01.967Z,97943.18
2018-08-03T21:59:31.263Z,97938.23
2018-08-03T22:02:00.296Z,97931.17
2018-08-03T22:04:29.526Z,97941.94
2018-08-03T22:06:58.793Z,97948.13
2018-08-03T22:09:27.782Z,97931.36
2018-08-03T22:11:57.143Z,97940.64
2018-08-03T22:14:26.362Z,97937.78
2018-08-03T22:16:55.678Z,97945.25
2018-08-03T22:19:24.931Z,97948.39
2018-08-03T22:21:54.176Z,97950.02
2018-08-03T22:24:23.533Z,97949.34
2018-08-03T22:26:52.922Z,97947.93
2018-08-03T22:29:22.283Z,97951.45
2018-08-03T22:31:51.655Z,97949.77
2018-08-03T22:34:21.013Z,97942.63
2018-08-03T22:36:50.357Z,97946.96
2018-08-03T22:39:19.819Z,97945.16
2018-08-03T22:41:49.221Z,97944.56
2018-08-03T22:44:18.529Z,97960.39
2018-08-03T22:46:47.805Z,97949.86
2018-08-03T22:49:16.849Z,97951.77
2018-08-03T22:51:46.125Z,97945.30
2018-08-03T22:54:15.380Z,97952.05
2018-08-03T22:56:44.640Z,97949.89
2018-08-03T22:59:13.954Z,97941.19
2018-08-03T23:01:43.431Z,97936.52
2018-08-03T23:04:12.693Z,97941.33
2018-08-03T23:06:42.139Z,97942.37
2018-08-03T23:09:11.343Z,97943.94
2018-08-03T23:11:40.652Z,97948.98
2018-08-03T23:14:09.878Z,97947.30
2018-08-03T23:16:39.121Z,97942.84
2018-08-03T23:19:08.426Z,97939.89
2018-08-03T23:21:37.650Z,97937.06
2018-08-03T23:24:06.966Z,97933.41
2018-08-03T23:26:36.204Z,97937.70
2018-08-03T23:29:05.213Z,97929.55
2018-08-03T23:31:34.522Z,97928.89
2018-08-03T23:34:03.829Z,97934.81
2018-08-03T23:36:33.076Z,97943.55
2018-08-03T23:39:02.310Z,97929.65
2018-08-03T23:41:31.542Z,97929.44
2018-08-03T23:44:00.818Z,97926.42
2018-08-03T23:46:30.066Z,97923.71
2018-08-03T23:48:59.310Z,97928.00
2018-08-03T23:51:28.535Z,97922.08
2018-08-03T23:53:57.801Z,97920.58
2018-08-03T23:56:27.018Z,97923.95
2018-08-03T23:58:56.241Z,97925.81
